Waltonville, Pennsylvania
Current Conditions -  °F | °C
As of 10:56 PM on Tuesday 25 Nov 2014 (Local Time) from KMDT Reporting Station
Overcast Overcast  
Wind Chill: 38°   Ceiling: 22000
Heat Index: 38°   Visibility: 10mi
Dew Point: 31°   Wind: 0mph
Humidity: 76%   Direction: NA
Pressure: 30.15"   Gusts: NA
Location:  40.2988°N, 76.709°W
Report Text: KMDT 260356Z 00000KT 10SM SCT190 OVC220 03/M01 A3015 RMK AO2 SLP210 T00331006
Loading
Personal Weather Stations






























Interactive Weather Map New forecast layout! Learn more

10-Day Weather Forecast

Advertisements
Track Severe Weather on mobile